sensor_id;sensor_type;location;lat;lon;timestamp;temperature;humidity
22288;DHT22;11312;51.464;6.968;2023-08-20T00:01:25;19.40;99.90
22288;DHT22;11312;51.464;6.968;2023-08-20T00:03:53;19.40;99.90
22288;DHT22;11312;51.464;6.968;2023-08-20T00:06:20;19.30;99.90
22288;DHT22;11312;51.464;6.968;2023-08-20T00:08:46;19.20;99.90
22288;DHT22;11312;51.464;6.968;2023-08-20T00:11:12;19.20;99.90
22288;DHT22;11312;51.464;6.968;2023-08-20T00:13:38;19.20;99.90
22288;DHT22;11312;51.464;6.968;2023-08-20T00:16:04;19.30;99.90
22288;DHT22;11312;51.464;6.968;2023-08-20T00:18:30;19.20;99.90
22288;DHT22;11312;51.464;6.968;2023-08-20T00:20:56;19.30;99.90
22288;DHT22;11312;51.464;6.968;2023-08-20T00:23:22;19.20;99.90
22288;DHT22;11312;51.464;6.968;2023-08-20T00:25:48;19.20;99.90
22288;DHT22;11312;51.464;6.968;2023-08-20T00:28:14;19.20;99.90
22288;DHT22;11312;51.464;6.968;2023-08-20T00:30:40;19.20;99.90
22288;DHT22;11312;51.464;6.968;2023-08-20T00:33:06;19.10;99.90
22288;DHT22;11312;51.464;6.968;2023-08-20T00:35:31;19.20;99.90
22288;DHT22;11312;51.464;6.968;2023-08-20T00:37:57;19.10;99.90
22288;DHT22;11312;51.464;6.968;2023-08-20T00:40:23;19.10;99.90
22288;DHT22;11312;51.464;6.968;2023-08-20T00:42:49;19.10;99.90
22288;DHT22;11312;51.464;6.968;2023-08-20T00:45:15;19.10;99.90
22288;DHT22;11312;51.464;6.968;2023-08-20T00:47:42;19.10;99.90
22288;DHT22;11312;51.464;6.968;2023-08-20T00:50:08;19.00;99.90
22288;DHT22;11312;51.464;6.968;2023-08-20T00:52:34;19.00;99.90
22288;DHT22;11312;51.464;6.968;2023-08-20T00:55:08;18.90;99.90
22288;DHT22;11312;51.464;6.968;2023-08-20T00:57:35;18.90;99.90
22288;DHT22;11312;51.464;6.968;2023-08-20T01:00:01;18.90;99.90
22288;DHT22;11312;51.464;6.968;2023-08-20T01:02:27;18.90;99.90
22288;DHT22;11312;51.464;6.968;2023-08-20T01:04:52;18.90;99.90
22288;DHT22;11312;51.464;6.968;2023-08-20T01:07:27;18.90;99.90
22288;DHT22;11312;51.464;6.968;2023-08-20T01:12:34;18.80;99.90
22288;DHT22;11312;51.464;6.968;2023-08-20T01:15:01;18.80;99.90
22288;DHT22;11312;51.464;6.968;2023-08-20T01:17:26;18.80;99.90
22288;DHT22;11312;51.464;6.968;2023-08-20T01:19:52;18.90;99.90
22288;DHT22;11312;51.464;6.968;2023-08-20T01:22:31;18.80;99.90
22288;DHT22;11312;51.464;6.968;2023-08-20T01:25:19;18.80;99.90
22288;DHT22;11312;51.464;6.968;2023-08-20T01:28:29;18.80;99.90
22288;DHT22;11312;51.464;6.968;2023-08-20T01:30:59;18.80;99.90
22288;DHT22;11312;51.464;6.968;2023-08-20T01:33:25;18.70;99.90
22288;DHT22;11312;51.464;6.968;2023-08-20T01:35:54;18.70;99.90
22288;DHT22;11312;51.464;6.968;2023-08-20T01:38:20;18.70;99.90
22288;DHT22;11312;51.464;6.968;2023-08-20T01:40:47;18.80;99.90
22288;DHT22;11312;51.464;6.968;2023-08-20T01:43:12;18.80;99.90
22288;DHT22;11312;51.464;6.968;2023-08-20T01:45:38;18.70;99.90
22288;DHT22;11312;51.464;6.968;2023-08-20T01:48:04;18.70;99.90
22288;DHT22;11312;51.464;6.968;2023-08-20T01:50:30;18.70;99.90
22288;DHT22;11312;51.464;6.968;2023-08-20T01:52:56;18.70;99.90
22288;DHT22;11312;51.464;6.968;2023-08-20T01:55:21;18.60;99.90
22288;DHT22;11312;51.464;6.968;2023-08-20T01:57:47;18.60;99.90
22288;DHT22;11312;51.464;6.968;2023-08-20T02:00:13;18.50;99.90
22288;DHT22;11312;51.464;6.968;2023-08-20T02:02:39;18.60;99.90
22288;DHT22;11312;51.464;6.968;2023-08-20T02:05:05;18.50;99.90
22288;DHT22;11312;51.464;6.968;2023-08-20T02:07:30;18.50;99.90
22288;DHT22;11312;51.464;6.968;2023-08-20T02:09:56;18.50;99.90
22288;DHT22;11312;51.464;6.968;2023-08-20T02:12:21;18.50;99.90
22288;DHT22;11312;51.464;6.968;2023-08-20T02:14:47;18.50;99.90
22288;DHT22;11312;51.464;6.968;2023-08-20T02:17:13;18.40;99.90
22288;DHT22;11312;51.464;6.968;2023-08-20T02:19:39;18.50;99.90
22288;DHT22;11312;51.464;6.968;2023-08-20T02:22:05;18.50;99.90
22288;DHT22;11312;51.464;6.968;2023-08-20T02:24:30;18.50;99.90
22288;DHT22;11312;51.464;6.968;2023-08-20T02:26:56;18.50;99.90
22288;DHT22;11312;51.464;6.968;2023-08-20T02:29:22;18.50;99.90
22288;DHT22;11312;51.464;6.968;2023-08-20T02:31:47;18.60;99.90
22288;DHT22;11312;51.464;6.968;2023-08-20T02:34:13;18.60;99.90
22288;DHT22;11312;51.464;6.968;2023-08-20T02:36:39;18.70;99.90
22288;DHT22;11312;51.464;6.968;2023-08-20T02:39:04;18.70;99.90
22288;DHT22;11312;51.464;6.968;2023-08-20T02:41:34;18.70;99.90
22288;DHT22;11312;51.464;6.968;2023-08-20T02:44:00;18.80;99.90
22288;DHT22;11312;51.464;6.968;2023-08-20T02:46:25;18.80;99.90
22288;DHT22;11312;51.464;6.968;2023-08-20T02:48:51;18.90;99.90
22288;DHT22;11312;51.464;6.968;2023-08-20T02:51:16;18.80;99.90
22288;DHT22;11312;51.464;6.968;2023-08-20T02:53:42;18.70;99.90
22288;DHT22;11312;51.464;6.968;2023-08-20T02:56:08;18.70;99.90
22288;DHT22;11312;51.464;6.968;2023-08-20T02:58:34;18.70;99.90
22288;DHT22;11312;51.464;6.968;2023-08-20T03:01:00;18.70;99.90
22288;DHT22;11312;51.464;6.968;2023-08-20T03:03:25;18.60;99.90
22288;DHT22;11312;51.464;6.968;2023-08-20T03:05:51;18.70;99.90
22288;DHT22;11312;51.464;6.968;2023-08-20T03:08:17;18.70;99.90
22288;DHT22;11312;51.464;6.968;2023-08-20T03:10:42;18.60;99.90
22288;DHT22;11312;51.464;6.968;2023-08-20T03:13:08;18.70;99.90
22288;DHT22;11312;51.464;6.968;2023-08-20T03:15:34;18.70;99.90
22288;DHT22;11312;51.464;6.968;2023-08-20T03:17:59;18.70;99.90
22288;DHT22;11312;51.464;6.968;2023-08-20T03:20:25;18.70;99.90
22288;DHT22;11312;51.464;6.968;2023-08-20T03:22:52;18.60;99.90
22288;DHT22;11312;51.464;6.968;2023-08-20T03:25:17;18.60;99.90
22288;DHT22;11312;51.464;6.968;2023-08-20T03:27:43;18.70;99.90
22288;DHT22;11312;51.464;6.968;2023-08-20T03:30:10;18.70;99.90
22288;DHT22;11312;51.464;6.968;2023-08-20T03:32:35;18.60;99.90
22288;DHT22;11312;51.464;6.968;2023-08-20T03:35:01;18.70;99.90
22288;DHT22;11312;51.464;6.968;2023-08-20T03:37:27;18.80;99.90
22288;DHT22;11312;51.464;6.968;2023-08-20T03:39:52;18.80;99.90
22288;DHT22;11312;51.464;6.968;2023-08-20T03:42:18;18.80;99.90
22288;DHT22;11312;51.464;6.968;2023-08-20T03:44:44;18.80;99.90
22288;DHT22;11312;51.464;6.968;2023-08-20T03:47:09;18.80;99.90
22288;DHT22;11312;51.464;6.968;2023-08-20T03:49:35;18.80;99.90
22288;DHT22;11312;51.464;6.968;2023-08-20T03:52:01;18.70;99.90
22288;DHT22;11312;51.464;6.968;2023-08-20T03:54:30;18.70;99.90
22288;DHT22;11312;51.464;6.968;2023-08-20T03:56:56;18.70;99.90
22288;DHT22;11312;51.464;6.968;2023-08-20T03:59:21;18.70;99.90
22288;DHT22;11312;51.464;6.968;2023-08-20T04:01:47;18.60;99.90
22288;DHT22;11312;51.464;6.968;2023-08-20T04:04:13;18.60;99.90
22288;DHT22;11312;51.464;6.968;2023-08-20T04:06:38;18.60;99.90
22288;DHT22;11312;51.464;6.968;2023-08-20T04:09:04;18.50;99.90
22288;DHT22;11312;51.464;6.968;2023-08-20T04:11:31;18.60;99.90
22288;DHT22;11312;51.464;6.968;2023-08-20T04:13:57;18.50;99.90
22288;DHT22;11312;51.464;6.968;2023-08-20T04:16:22;18.50;99.90
22288;DHT22;11312;51.464;6.968;2023-08-20T04:18:48;18.50;99.90
22288;DHT22;11312;51.464;6.968;2023-08-20T04:21:14;18.70;99.90
22288;DHT22;11312;51.464;6.968;2023-08-20T04:23:39;18.40;99.90
22288;DHT22;11312;51.464;6.968;2023-08-20T04:26:07;18.40;99.90
22288;DHT22;11312;51.464;6.968;2023-08-20T04:28:32;18.30;99.90
22288;DHT22;11312;51.464;6.968;2023-08-20T04:30:58;18.40;99.90
22288;DHT22;11312;51.464;6.968;2023-08-20T04:33:25;18.30;99.90
22288;DHT22;11312;51.464;6.968;2023-08-20T04:35:51;18.40;99.90
22288;DHT22;11312;51.464;6.968;2023-08-20T04:38:17;18.30;99.90
22288;DHT22;11312;51.464;6.968;2023-08-20T04:40:46;18.40;99.90
22288;DHT22;11312;51.464;6.968;2023-08-20T04:43:11;18.40;99.90
22288;DHT22;11312;51.464;6.968;2023-08-20T04:45:37;18.40;99.90
22288;DHT22;11312;51.464;6.968;2023-08-20T04:48:03;18.30;99.90
22288;DHT22;11312;51.464;6.968;2023-08-20T04:50:29;18.30;99.90
22288;DHT22;11312;51.464;6.968;2023-08-20T04:52:54;18.30;99.90
22288;DHT22;11312;51.464;6.968;2023-08-20T04:55:20;18.40;99.90
22288;DHT22;11312;51.464;6.968;2023-08-20T04:57:45;18.50;99.90
22288;DHT22;11312;51.464;6.968;2023-08-20T05:00:11;18.50;99.90
22288;DHT22;11312;51.464;6.968;2023-08-20T05:02:37;18.50;99.90
22288;DHT22;11312;51.464;6.968;2023-08-20T05:05:03;18.50;99.90
22288;DHT22;11312;51.464;6.968;2023-08-20T05:07:29;18.50;99.90
22288;DHT22;11312;51.464;6.968;2023-08-20T05:09:54;18.50;99.90
22288;DHT22;11312;51.464;6.968;2023-08-20T05:12:20;18.50;99.90
22288;DHT22;11312;51.464;6.968;2023-08-20T05:14:46;18.50;99.90
22288;DHT22;11312;51.464;6.968;2023-08-20T05:17:11;18.50;99.90
22288;DHT22;11312;51.464;6.968;2023-08-20T05:19:37;18.50;99.90
22288;DHT22;11312;51.464;6.968;2023-08-20T05:22:02;18.50;99.90
22288;DHT22;11312;51.464;6.968;2023-08-20T05:24:28;18.60;99.90
22288;DHT22;11312;51.464;6.968;2023-08-20T05:27:07;18.60;99.90
22288;DHT22;11312;51.464;6.968;2023-08-20T05:29:34;18.60;99.90
22288;DHT22;11312;51.464;6.968;2023-08-20T05:31:59;18.60;99.90
22288;DHT22;11312;51.464;6.968;2023-08-20T05:34:25;18.70;99.90
22288;DHT22;11312;51.464;6.968;2023-08-20T05:36:51;18.80;99.90
22288;DHT22;11312;51.464;6.968;2023-08-20T05:39:16;18.80;99.90
22288;DHT22;11312;51.464;6.968;2023-08-20T05:41:42;18.80;99.90
22288;DHT22;11312;51.464;6.968;2023-08-20T05:44:08;18.90;99.90
22288;DHT22;11312;51.464;6.968;2023-08-20T05:46:33;19.00;99.90
22288;DHT22;11312;51.464;6.968;2023-08-20T05:48:59;19.10;99.90
22288;DHT22;11312;51.464;6.968;2023-08-20T05:51:25;19.10;99.90
22288;DHT22;11312;51.464;6.968;2023-08-20T05:53:51;19.20;99.90
22288;DHT22;11312;51.464;6.968;2023-08-20T05:56:16;19.30;99.90
22288;DHT22;11312;51.464;6.968;2023-08-20T05:58:42;19.50;99.90
22288;DHT22;11312;51.464;6.968;2023-08-20T06:01:07;19.70;99.90
22288;DHT22;11312;51.464;6.968;2023-08-20T06:03:33;20.00;99.90
22288;DHT22;11312;51.464;6.968;2023-08-20T06:05:59;20.40;99.90
22288;DHT22;11312;51.464;6.968;2023-08-20T06:08:24;20.40;99.90
22288;DHT22;11312;51.464;6.968;2023-08-20T06:10:50;20.70;99.90
22288;DHT22;11312;51.464;6.968;2023-08-20T06:13:17;20.90;99.90
22288;DHT22;11312;51.464;6.968;2023-08-20T06:15:42;21.10;99.90
22288;DHT22;11312;51.464;6.968;2023-08-20T06:18:08;21.40;99.90
22288;DHT22;11312;51.464;6.968;2023-08-20T06:20:34;21.60;99.90
22288;DHT22;11312;51.464;6.968;2023-08-20T06:22:59;21.70;99.90
22288;DHT22;11312;51.464;6.968;2023-08-20T06:25:25;21.80;99.90
22288;DHT22;11312;51.464;6.968;2023-08-20T06:27:50;21.80;99.90
22288;DHT22;11312;51.464;6.968;2023-08-20T06:30:16;21.70;99.90
22288;DHT22;11312;51.464;6.968;2023-08-20T06:32:45;21.60;99.90
22288;DHT22;11312;51.464;6.968;2023-08-20T06:35:11;21.50;99.90
22288;DHT22;11312;51.464;6.968;2023-08-20T06:37:38;21.60;99.90
22288;DHT22;11312;51.464;6.968;2023-08-20T06:40:05;21.80;99.90
22288;DHT22;11312;51.464;6.968;2023-08-20T06:42:31;22.20;99.90
22288;DHT22;11312;51.464;6.968;2023-08-20T06:44:57;22.50;99.90
22288;DHT22;11312;51.464;6.968;2023-08-20T06:47:22;22.50;99.90
22288;DHT22;11312;51.464;6.968;2023-08-20T06:49:50;22.70;99.90
22288;DHT22;11312;51.464;6.968;2023-08-20T06:52:15;23.10;99.90
22288;DHT22;11312;51.464;6.968;2023-08-20T06:54:41;23.50;99.90
22288;DHT22;11312;51.464;6.968;2023-08-20T06:57:06;23.80;99.90
22288;DHT22;11312;51.464;6.968;2023-08-20T06:59:32;24.10;99.90
22288;DHT22;11312;51.464;6.968;2023-08-20T07:01:58;24.30;99.90
22288;DHT22;11312;51.464;6.968;2023-08-20T07:04:23;24.80;99.90
22288;DHT22;11312;51.464;6.968;2023-08-20T07:06:50;25.10;99.90
22288;DHT22;11312;51.464;6.968;2023-08-20T07:09:16;25.10;99.90
22288;DHT22;11312;51.464;6.968;2023-08-20T07:11:41;25.10;99.90
22288;DHT22;11312;51.464;6.968;2023-08-20T07:14:07;25.60;99.90
22288;DHT22;11312;51.464;6.968;2023-08-20T07:16:33;25.80;99.90
22288;DHT22;11312;51.464;6.968;2023-08-20T07:18:59;25.80;99.90
22288;DHT22;11312;51.464;6.968;2023-08-20T07:21:24;25.60;99.90
22288;DHT22;11312;51.464;6.968;2023-08-20T07:23:50;25.10;99.90
22288;DHT22;11312;51.464;6.968;2023-08-20T07:26:15;24.80;99.90
22288;DHT22;11312;51.464;6.968;2023-08-20T07:28:41;24.70;99.90
22288;DHT22;11312;51.464;6.968;2023-08-20T07:31:24;24.50;99.90
22288;DHT22;11312;51.464;6.968;2023-08-20T07:33:50;24.30;99.90
22288;DHT22;11312;51.464;6.968;2023-08-20T07:36:17;24.70;99.90
22288;DHT22;11312;51.464;6.968;2023-08-20T07:38:43;24.90;99.90
22288;DHT22;11312;51.464;6.968;2023-08-20T07:41:12;25.00;99.90
22288;DHT22;11312;51.464;6.968;2023-08-20T07:43:38;25.10;99.90
22288;DHT22;11312;51.464;6.968;2023-08-20T07:46:06;24.90;99.90
22288;DHT22;11312;51.464;6.968;2023-08-20T07:48:33;25.00;99.90
22288;DHT22;11312;51.464;6.968;2023-08-20T07:50:59;24.90;99.90
22288;DHT22;11312;51.464;6.968;2023-08-20T07:53:24;25.10;99.90
22288;DHT22;11312;51.464;6.968;2023-08-20T07:55:50;25.30;99.90
22288;DHT22;11312;51.464;6.968;2023-08-20T07:58:15;25.20;99.90
22288;DHT22;11312;51.464;6.968;2023-08-20T08:00:41;25.20;99.90
22288;DHT22;11312;51.464;6.968;2023-08-20T08:03:07;25.40;99.90
22288;DHT22;11312;51.464;6.968;2023-08-20T08:05:34;25.70;99.90
22288;DHT22;11312;51.464;6.968;2023-08-20T08:08:00;25.70;99.90
22288;DHT22;11312;51.464;6.968;2023-08-20T08:10:26;25.20;99.90
22288;DHT22;11312;51.464;6.968;2023-08-20T08:12:51;25.20;99.90
22288;DHT22;11312;51.464;6.968;2023-08-20T08:15:17;25.30;99.90
22288;DHT22;11312;51.464;6.968;2023-08-20T08:17:43;25.20;99.90
22288;DHT22;11312;51.464;6.968;2023-08-20T08:20:09;24.50;99.90
22288;DHT22;11312;51.464;6.968;2023-08-20T08:22:34;24.30;99.90
22288;DHT22;11312;51.464;6.968;2023-08-20T08:25:00;24.30;99.90
22288;DHT22;11312;51.464;6.968;2023-08-20T08:27:26;24.30;99.90
22288;DHT22;11312;51.464;6.968;2023-08-20T08:29:51;24.80;99.90
22288;DHT22;11312;51.464;6.968;2023-08-20T08:32:17;25.50;99.90
22288;DHT22;11312;51.464;6.968;2023-08-20T08:34:42;26.20;99.90
22288;DHT22;11312;51.464;6.968;2023-08-20T08:37:08;26.80;99.90
22288;DHT22;11312;51.464;6.968;2023-08-20T08:39:34;27.10;99.90
22288;DHT22;11312;51.464;6.968;2023-08-20T08:42:04;26.80;99.90
22288;DHT22;11312;51.464;6.968;2023-08-20T08:44:34;27.10;99.90
22288;DHT22;11312;51.464;6.968;2023-08-20T08:47:04;27.50;99.90
22288;DHT22;11312;51.464;6.968;2023-08-20T08:49:33;27.80;99.90
22288;DHT22;11312;51.464;6.968;2023-08-20T08:51:59;28.20;99.90
22288;DHT22;11312;51.464;6.968;2023-08-20T08:54:26;28.00;99.90
22288;DHT22;11312;51.464;6.968;2023-08-20T08:56:52;27.90;99.90
22288;DHT22;11312;51.464;6.968;2023-08-20T08:59:18;27.80;99.90
22288;DHT22;11312;51.464;6.968;2023-08-20T09:01:44;28.20;99.90
22288;DHT22;11312;51.464;6.968;2023-08-20T09:04:10;28.40;99.90
22288;DHT22;11312;51.464;6.968;2023-08-20T09:06:50;28.70;99.90
22288;DHT22;11312;51.464;6.968;2023-08-20T09:09:17;28.40;99.90
22288;DHT22;11312;51.464;6.968;2023-08-20T09:11:43;27.20;99.90
22288;DHT22;11312;51.464;6.968;2023-08-20T09:14:29;27.20;99.90
22288;DHT22;11312;51.464;6.968;2023-08-20T09:16:57;27.20;99.90
22288;DHT22;11312;51.464;6.968;2023-08-20T09:19:23;26.70;99.90
22288;DHT22;11312;51.464;6.968;2023-08-20T09:21:49;27.10;99.90
22288;DHT22;11312;51.464;6.968;2023-08-20T09:24:15;27.40;99.90
22288;DHT22;11312;51.464;6.968;2023-08-20T09:26:45;27.70;99.90
22288;DHT22;11312;51.464;6.968;2023-08-20T09:29:11;28.10;99.90
22288;DHT22;11312;51.464;6.968;2023-08-20T09:31:39;28.20;99.90
22288;DHT22;11312;51.464;6.968;2023-08-20T09:34:05;28.70;99.90
22288;DHT22;11312;51.464;6.968;2023-08-20T09:36:33;29.10;99.90
22288;DHT22;11312;51.464;6.968;2023-08-20T09:38:59;28.70;99.90
22288;DHT22;11312;51.464;6.968;2023-08-20T09:41:26;29.10;99.90
22288;DHT22;11312;51.464;6.968;2023-08-20T09:43:58;29.00;99.90
22288;DHT22;11312;51.464;6.968;2023-08-20T09:46:26;28.90;99.90
22288;DHT22;11312;51.464;6.968;2023-08-20T09:48:57;29.10;99.90
22288;DHT22;11312;51.464;6.968;2023-08-20T09:51:27;29.50;99.90
22288;DHT22;11312;51.464;6.968;2023-08-20T09:54:23;29.10;99.90
22288;DHT22;11312;51.464;6.968;2023-08-20T09:56:54;28.50;99.90
22288;DHT22;11312;51.464;6.968;2023-08-20T09:59:23;27.90;99.90
22288;DHT22;11312;51.464;6.968;2023-08-20T10:01:50;27.50;99.90
22288;DHT22;11312;51.464;6.968;2023-08-20T10:04:17;27.30;99.90
22288;DHT22;11312;51.464;6.968;2023-08-20T10:06:44;27.80;99.90
22288;DHT22;11312;51.464;6.968;2023-08-20T10:09:09;28.00;99.90
22288;DHT22;11312;51.464;6.968;2023-08-20T10:11:35;27.30;99.90
22288;DHT22;11312;51.464;6.968;2023-08-20T10:14:02;26.90;99.90
22288;DHT22;11312;51.464;6.968;2023-08-20T10:16:28;26.50;99.90
22288;DHT22;11312;51.464;6.968;2023-08-20T10:18:54;26.40;99.90
22288;DHT22;11312;51.464;6.968;2023-08-20T10:21:24;27.30;99.90
22288;DHT22;11312;51.464;6.968;2023-08-20T10:23:53;28.40;99.90
22288;DHT22;11312;51.464;6.968;2023-08-20T10:26:20;28.70;99.90
22288;DHT22;11312;51.464;6.968;2023-08-20T10:28:47;29.00;99.90
22288;DHT22;11312;51.464;6.968;2023-08-20T10:31:13;29.30;99.90
22288;DHT22;11312;51.464;6.968;2023-08-20T10:36:20;27.90;99.90
22288;DHT22;11312;51.464;6.968;2023-08-20T10:38:55;26.80;99.90
22288;DHT22;11312;51.464;6.968;2023-08-20T10:41:25;26.40;99.90
22288;DHT22;11312;51.464;6.968;2023-08-20T10:43:51;26.10;99.90
22288;DHT22;11312;51.464;6.968;2023-08-20T10:46:25;26.00;99.90
22288;DHT22;11312;51.464;6.968;2023-08-20T10:48:56;26.00;99.90
22288;DHT22;11312;51.464;6.968;2023-08-20T10:51:28;27.40;99.90
22288;DHT22;11312;51.464;6.968;2023-08-20T10:56:47;29.10;99.90
22288;DHT22;11312;51.464;6.968;2023-08-20T10:59:26;29.30;99.90
22288;DHT22;11312;51.464;6.968;2023-08-20T11:01:54;29.90;99.90
22288;DHT22;11312;51.464;6.968;2023-08-20T11:04:21;29.10;99.90
22288;DHT22;11312;51.464;6.968;2023-08-20T11:06:50;28.10;99.90
22288;DHT22;11312;51.464;6.968;2023-08-20T11:09:18;27.50;99.90
22288;DHT22;11312;51.464;6.968;2023-08-20T11:11:44;27.20;99.90
22288;DHT22;11312;51.464;6.968;2023-08-20T11:14:14;27.00;99.90
22288;DHT22;11312;51.464;6.968;2023-08-20T11:16:40;27.00;99.90
22288;DHT22;11312;51.464;6.968;2023-08-20T11:19:06;26.90;99.90
22288;DHT22;11312;51.464;6.968;2023-08-20T11:21:35;28.10;99.90
22288;DHT22;11312;51.464;6.968;2023-08-20T11:24:02;29.00;99.90
22288;DHT22;11312;51.464;6.968;2023-08-20T11:26:29;29.90;99.90
22288;DHT22;11312;51.464;6.968;2023-08-20T11:28:55;29.20;99.90
22288;DHT22;11312;51.464;6.968;2023-08-20T11:31:22;28.40;99.90
22288;DHT22;11312;51.464;6.968;2023-08-20T11:33:49;28.30;99.90
22288;DHT22;11312;51.464;6.968;2023-08-20T11:36:16;27.90;99.90
22288;DHT22;11312;51.464;6.968;2023-08-20T11:38:52;27.40;99.90
22288;DHT22;11312;51.464;6.968;2023-08-20T11:41:19;27.10;99.90
22288;DHT22;11312;51.464;6.968;2023-08-20T11:43:45;27.20;99.90
22288;DHT22;11312;51.464;6.968;2023-08-20T11:46:15;26.90;99.90
22288;DHT22;11312;51.464;6.968;2023-08-20T11:49:07;27.80;99.90
22288;DHT22;11312;51.464;6.968;2023-08-20T11:51:43;28.10;99.90
22288;DHT22;11312;51.464;6.968;2023-08-20T11:54:13;29.20;99.90
22288;DHT22;11312;51.464;6.968;2023-08-20T11:56:46;30.30;99.90
22288;DHT22;11312;51.464;6.968;2023-08-20T11:59:13;31.20;99.90
22288;DHT22;11312;51.464;6.968;2023-08-20T12:01:39;31.50;99.90
22288;DHT22;11312;51.464;6.968;2023-08-20T12:04:06;31.80;99.90
22288;DHT22;11312;51.464;6.968;2023-08-20T12:06:34;30.40;99.90
22288;DHT22;11312;51.464;6.968;2023-08-20T12:09:00;29.60;99.90
22288;DHT22;11312;51.464;6.968;2023-08-20T12:11:27;29.70;99.90
22288;DHT22;11312;51.464;6.968;2023-08-20T12:13:54;30.50;99.90
22288;DHT22;11312;51.464;6.968;2023-08-20T12:16:22;31.10;99.90
22288;DHT22;11312;51.464;6.968;2023-08-20T12:18:48;31.50;99.90
22288;DHT22;11312;51.464;6.968;2023-08-20T12:21:14;31.60;99.90
22288;DHT22;11312;51.464;6.968;2023-08-20T12:23:40;31.30;99.90
22288;DHT22;11312;51.464;6.968;2023-08-20T12:26:05;30.40;99.90
22288;DHT22;11312;51.464;6.968;2023-08-20T12:28:33;29.40;99.90
22288;DHT22;11312;51.464;6.968;2023-08-20T12:30:59;28.80;99.90
22288;DHT22;11312;51.464;6.968;2023-08-20T12:33:25;28.20;99.90
22288;DHT22;11312;51.464;6.968;2023-08-20T12:35:53;27.80;99.90
22288;DHT22;11312;51.464;6.968;2023-08-20T12:38:19;27.40;99.90
22288;DHT22;11312;51.464;6.968;2023-08-20T12:40:44;27.40;99.90
22288;DHT22;11312;51.464;6.968;2023-08-20T12:43:10;29.30;99.90
22288;DHT22;11312;51.464;6.968;2023-08-20T12:45:36;30.70;99.90
22288;DHT22;11312;51.464;6.968;2023-08-20T12:48:02;30.40;99.90
22288;DHT22;11312;51.464;6.968;2023-08-20T12:50:29;29.60;99.90
22288;DHT22;11312;51.464;6.968;2023-08-20T12:52:54;30.00;99.90
22288;DHT22;11312;51.464;6.968;2023-08-20T12:55:21;29.50;99.90
22288;DHT22;11312;51.464;6.968;2023-08-20T12:57:55;30.00;99.90
22288;DHT22;11312;51.464;6.968;2023-08-20T13:00:22;31.10;99.90
22288;DHT22;11312;51.464;6.968;2023-08-20T13:02:48;32.90;99.90
22288;DHT22;11312;51.464;6.968;2023-08-20T13:05:14;31.60;99.90
22288;DHT22;11312;51.464;6.968;2023-08-20T13:07:40;32.60;99.90
22288;DHT22;11312;51.464;6.968;2023-08-20T13:10:06;34.20;99.90
22288;DHT22;11312;51.464;6.968;2023-08-20T13:12:34;33.70;99.90
22288;DHT22;11312;51.464;6.968;2023-08-20T13:15:00;32.50;99.90
22288;DHT22;11312;51.464;6.968;2023-08-20T13:17:26;31.60;99.90
22288;DHT22;11312;51.464;6.968;2023-08-20T13:19:52;32.20;99.90
22288;DHT22;11312;51.464;6.968;2023-08-20T13:22:17;32.50;99.90
22288;DHT22;11312;51.464;6.968;2023-08-20T13:24:49;32.30;99.90
22288;DHT22;11312;51.464;6.968;2023-08-20T13:27:14;32.40;99.90
22288;DHT22;11312;51.464;6.968;2023-08-20T13:29:40;31.60;99.90
22288;DHT22;11312;51.464;6.968;2023-08-20T13:32:06;30.70;99.90
22288;DHT22;11312;51.464;6.968;2023-08-20T13:34:32;30.40;99.90
22288;DHT22;11312;51.464;6.968;2023-08-20T13:36:58;30.90;99.90
22288;DHT22;11312;51.464;6.968;2023-08-20T13:39:24;31.70;99.90
22288;DHT22;11312;51.464;6.968;2023-08-20T13:41:51;31.60;99.90
22288;DHT22;11312;51.464;6.968;2023-08-20T13:44:17;32.40;99.90
22288;DHT22;11312;51.464;6.968;2023-08-20T13:46:43;33.10;99.90
22288;DHT22;11312;51.464;6.968;2023-08-20T13:49:08;32.50;99.90
22288;DHT22;11312;51.464;6.968;2023-08-20T13:51:34;32.90;99.90
22288;DHT22;11312;51.464;6.968;2023-08-20T13:54:00;33.00;99.90
22288;DHT22;11312;51.464;6.968;2023-08-20T13:56:26;33.10;99.90
22288;DHT22;11312;51.464;6.968;2023-08-20T13:58:53;32.50;99.90
22288;DHT22;11312;51.464;6.968;2023-08-20T14:01:18;32.50;99.90
22288;DHT22;11312;51.464;6.968;2023-08-20T14:03:44;32.20;99.90
22288;DHT22;11312;51.464;6.968;2023-08-20T14:06:10;32.30;99.90
22288;DHT22;11312;51.464;6.968;2023-08-20T14:08:35;32.60;99.90
22288;DHT22;11312;51.464;6.968;2023-08-20T14:11:01;32.10;99.90
22288;DHT22;11312;51.464;6.968;2023-08-20T14:13:27;31.90;99.90
22288;DHT22;11312;51.464;6.968;2023-08-20T14:15:52;32.10;99.90
22288;DHT22;11312;51.464;6.968;2023-08-20T14:18:18;32.00;99.90
22288;DHT22;11312;51.464;6.968;2023-08-20T14:20:44;31.80;99.90
22288;DHT22;11312;51.464;6.968;2023-08-20T14:23:09;31.90;99.90
22288;DHT22;11312;51.464;6.968;2023-08-20T14:25:35;32.00;99.90
22288;DHT22;11312;51.464;6.968;2023-08-20T14:28:00;31.50;99.90
22288;DHT22;11312;51.464;6.968;2023-08-20T14:30:26;31.40;99.90
22288;DHT22;11312;51.464;6.968;2023-08-20T14:32:53;31.60;99.90
22288;DHT22;11312;51.464;6.968;2023-08-20T14:35:19;31.00;99.90
22288;DHT22;11312;51.464;6.968;2023-08-20T14:37:45;31.10;99.90
22288;DHT22;11312;51.464;6.968;2023-08-20T14:40:11;31.20;99.90
22288;DHT22;11312;51.464;6.968;2023-08-20T14:42:37;31.10;99.90
22288;DHT22;11312;51.464;6.968;2023-08-20T14:45:03;30.60;99.90
22288;DHT22;11312;51.464;6.968;2023-08-20T14:47:29;30.50;99.90
22288;DHT22;11312;51.464;6.968;2023-08-20T14:49:55;30.60;99.90
22288;DHT22;11312;51.464;6.968;2023-08-20T14:52:20;30.90;99.90
22288;DHT22;11312;51.464;6.968;2023-08-20T14:54:46;31.10;99.90
22288;DHT22;11312;51.464;6.968;2023-08-20T14:57:12;31.10;99.90
22288;DHT22;11312;51.464;6.968;2023-08-20T14:59:38;31.00;99.90
22288;DHT22;11312;51.464;6.968;2023-08-20T15:02:03;30.60;99.90
22288;DHT22;11312;51.464;6.968;2023-08-20T15:04:29;30.00;99.90
22288;DHT22;11312;51.464;6.968;2023-08-20T15:06:55;30.10;99.90
22288;DHT22;11312;51.464;6.968;2023-08-20T15:09:20;30.10;99.90
22288;DHT22;11312;51.464;6.968;2023-08-20T15:11:46;30.10;99.90
22288;DHT22;11312;51.464;6.968;2023-08-20T15:14:12;29.70;99.90
22288;DHT22;11312;51.464;6.968;2023-08-20T15:16:37;29.40;99.90
22288;DHT22;11312;51.464;6.968;2023-08-20T15:19:03;29.40;99.90
22288;DHT22;11312;51.464;6.968;2023-08-20T15:21:29;29.40;99.90
22288;DHT22;11312;51.464;6.968;2023-08-20T15:23:55;29.20;99.90
22288;DHT22;11312;51.464;6.968;2023-08-20T15:26:20;28.90;99.90
22288;DHT22;11312;51.464;6.968;2023-08-20T15:28:46;29.00;99.90
22288;DHT22;11312;51.464;6.968;2023-08-20T15:31:11;28.80;99.90
22288;DHT22;11312;51.464;6.968;2023-08-20T15:33:37;28.70;99.90
22288;DHT22;11312;51.464;6.968;2023-08-20T15:36:03;28.30;99.90